Nathaniel B. Palmer — WBP3210 — position and weather

sailwx.info

Track history (hours):
 
Tides and Currents Weather Stations Pressure Air Temp Water Temp Dewpoint Dewpoint Depression Visibility Wind Speed Wind Dir Waves Ship Positions

Oceanographic research ship Nathaniel B. Palmer (USA)

Contact: Ethan Norris, ethan.norris.contractor@usap.gov

Detailed information on ship capabilities available from University of Delaware's Ocean Information Center and ARCUS's ALIAS (Arctic Logistics Information and Support) project.

Owner: OFFSHORE SERVICE VESSELS, GALLIANO, LA. More information available from US FCC via Universal Licensing System and Coast Guard Vessel Documentation Center.

Last reported at 2017-Jul-28 06:00 UTC. Time now 2017-Jul-28 06:29 UTC.
Position S 32°24' W 175°42'.

Type: Other ship. MMSI: 366610000.

Wind from 290 at 26 knots

Barometer 1009.9 mb
Air temperature 14.8 ° C
Water temperature 17.8 ° C

Date/timePositionNaut miles runAvg speedWind from/ knotsBaromVisibWave heightAir tempDewpointWater temp
2017-Jul-28 06:00S 32°24' W 175°42'8 7.9 290 / 261009.9 14.8 17.8
2017-Jul-28 05:00S 32°30' W 175°48'1211.8 310 / 291008.8 17.6 17.9
2017-Jul-28 04:00S 32°24' W 176°00'1211.8 320 / 231008.5 17.1 18.0
2017-Jul-28 03:00S 32°30' W 176°12'6 6.0 330 / 201009.1 16.5 17.8
2017-Jul-28 02:00S 32°24' W 176°12'0 0.0 330 / 291009.8 16.7 17.7
2017-Jul-28 01:00S 32°24' W 176°12'6 6.0 330 / 271010.5 17.2 17.6
2017-Jul-28 00:00S 32°30' W 176°12'0 0.0 330 / 261011.6 17.2 17.6
2017-Jul-27 23:00S 32°30' W 176°12'5 5.1 330 / 271012.7 16.9 17.6
2017-Jul-27 22:00S 32°30' W 176°18'1010.1 330 / 191012.9 17.0 17.8
2017-Jul-27 21:00S 32°30' W 176°30'1010.1 330 / 181012.7 16.7 18.1
2017-Jul-27 20:00S 32°30' W 176°42'0 0.0 330 / 231012.8 16.0 17.7
2017-Jul-27 19:00S 32°30' W 176°42'0 0.0 340 / 251012.6 17.1 17.6
2017-Jul-27 18:00S 32°30' W 176°42'0 0.0 340 / 241012.6 16.8 17.5
2017-Jul-27 17:00S 32°30' W 176°42'0 0.0 330 / 221012.9 16.6 17.5
2017-Jul-27 16:00S 32°30' W 176°42'0 0.0 330 / 211013.5 16.4 17.5
2017-Jul-27 15:00S 32°30' W 176°42'1010.1 320 / 161013.9 16.3 17.3
2017-Jul-27 14:00S 32°30' W 176°54'1010.1 320 / 151014.3 16.1 17.2
2017-Jul-27 13:00S 32°30' W 177°06'8 7.9 320 / 141014.5 16.0 17.2
2017-Jul-27 12:00S 32°24' W 177°12'0 0.0 330 / 171014.8 15.9 17.2
2017-Jul-27 11:00S 32°24' W 177°12'0 0.0 330 / 141015.0 15.9 17.2
2017-Jul-27 10:00S 32°24' W 177°12'0 0.0 320 / 131015.4 16.0 17.2
2017-Jul-27 09:00S 32°24' W 177°12'0 0.0 330 / 121015.6 16.0 17.3
2017-Jul-27 08:00S 32°24' W 177°12'5 5.1 320 / 111015.6 16.0 17.3
2017-Jul-27 07:00S 32°24' W 177°18'1010.1 300 / 101015.6 16.0 17.2
2017-Jul-27 06:00S 32°24' W 177°30'5 5.1 290 / 121015.4 16.0 17.2
2017-Jul-27 05:00S 32°24' W 177°36'0 0.0 290 / 121015.2 16.2 17.3
2017-Jul-27 04:00S 32°24' W 177°36'0 0.0 280 / 101014.9 16.4 17.3
2017-Jul-27 03:00S 32°24' W 177°36'0 0.0 290 / 91014.7 16.6 17.3
2017-Jul-27 02:00S 32°24' W 177°36'0 0.0 280 / 91014.9 16.4 17.3
2017-Jul-27 01:00S 32°24' W 177°36'1010.1 260 / 111015.1 16.3 17.2
2017-Jul-27 00:00S 32°24' W 177°48'8 7.9 250 / 91015.8 16.1 16.8
2017-Jul-26 23:00S 32°30' W 177°54'0 0.0 230 / 91016.1 16.6 17.0
2017-Jul-26 22:00S 32°30' W 177°54'0 0.0 240 / 111015.9 15.7 16.9
2017-Jul-26 21:00S 32°30' W 177°54'0 0.0 230 / 131015.2 15.6 16.9
2017-Jul-26 20:00S 32°30' W 177°54'0 0.0 220 / 131014.7 15.8 17.0
2017-Jul-26 19:00S 32°30' W 177°54'8 7.9 220 / 151014.2 15.4 17.0
2017-Jul-26 18:00S 32°24' W 178°00'1010.1 230 / 161013.8 15.4 16.9
2017-Jul-26 17:00S 32°24' W 178°12'0 0.0 220 / 151013.5 15.3 16.8
2017-Jul-26 16:00S 32°24' W 178°12'0 0.0 230 / 161013.6 15.3 16.9
2017-Jul-26 15:00S 32°24' W 178°12'0 0.0 220 / 161013.6 15.3 16.9
2017-Jul-26 14:00S 32°24' W 178°12'0 0.0 220 / 181013.5 15.2 16.9
2017-Jul-26 13:00S 32°24' W 178°12'5 5.1 220 / 201013.2 15.0 16.9
2017-Jul-26 12:00S 32°24' W 178°18'8 7.9 220 / 191013.0 15.1 17.1
2017-Jul-26 11:00S 32°30' W 178°24'0 0.0 220 / 181013.0 15.0 17.1
2017-Jul-26 10:00S 32°30' W 178°24'0 0.0 220 / 201012.8 14.7 17.0
2017-Jul-26 09:00S 32°30' W 178°24'6 6.0 230 / 211012.5 14.9 17.1
2017-Jul-26 08:00S 32°24' W 178°24'6 6.0 230 / 221012.2 15.1 17.2
2017-Jul-26 07:00S 32°30' W 178°24'1211.8 220 / 201011.7 15.3 17.1
2017-Jul-26 06:00S 32°24' W 178°36'0 0.0 230 / 201011.3 15.4 16.9
2017-Jul-26 05:00S 32°24' W 178°36'0 0.0 230 / 211010.8 15.7 16.9
2017-Jul-26 04:00S 32°24' W 178°36'0 0.0 220 / 231010.3 16.0 16.9
2017-Jul-26 03:00S 32°24' W 178°36'1010.1 230 / 211009.9 15.7 17.0
2017-Jul-26 02:00S 32°24' W 178°48'5 5.1 230 / 201010.0 14.9 17.1
2017-Jul-26 01:00S 32°24' W 178°54'6 6.0 210 / 181010.3 15.6 17.0
2017-Jul-26 00:00S 32°30' W 178°54'6 6.0 210 / 191010.8 15.7 17.0
2017-Jul-25 23:00S 32°24' W 178°54'1010.1 220 / 171011.2 13.9 16.8
2017-Jul-25 22:00S 32°24' W 179°06'8 7.9 220 / 141010.7 15.8 16.7
2017-Jul-25 21:00S 32°30' W 179°12'6 6.0 220 / 161010.2 15.7 16.7
2017-Jul-25 20:00S 32°24' W 179°12'1010.1 220 / 151009.8 15.3 16.7
2017-Jul-25 19:00S 32°24' W 179°24'6 6.0 220 / 141009.3 15.3 16.8
2017-Jul-25 18:00S 32°30' W 179°24'6 6.0 210 / 161008.7 15.1 17.0
2017-Jul-25 17:00S 32°24' W 179°24'8 7.9 200 / 151008.3 15.0 17.0
2017-Jul-25 16:00S 32°30' W 179°30'5 5.1 210 / 151008.1 14.9 17.0
2017-Jul-25 15:00S 32°30' W 179°36'1010.1 220 / 151008.1 15.0 17.0
2017-Jul-25 14:00S 32°30' W 179°48'1176211761.7 220 / 151008.3 15.2 17.6
2017-Jul-25 13:00S 32°24' E 052°30'64546454.0 220 / 141008.3 15.2 17.6
2017-Jul-25 12:00S 32°24' E 179°54'0 0.0 210 / 121008.2 14.6 17.7
2017-Jul-25 11:00S 32°24' E 179°54'0 0.0 230 / 101008.3 15.0 17.7
2017-Jul-25 10:00S 32°24' E 179°54'5 5.1 300 / 81008.4 13.8 17.7
2017-Jul-25 09:00S 32°24' E 179°48'1515.2 260 / 61008.2 14.6 17.7
2017-Jul-25 08:00S 32°24' E 179°30'5 5.1 240 / 91008.1 14.8 17.5
2017-Jul-25 07:00S 32°24' E 179°24'0 0.0 230 / 131007.8 14.6 17.4
2017-Jul-25 06:00S 32°24' E 179°24'0 0.0 290 / 111007.5 14.2 17.4
2017-Jul-25 05:00S 32°24' E 179°24'8 7.9 310 / 111007.4 15.1 17.4
2017-Jul-25 04:00S 32°30' E 179°18'1010.1 310 / 101007.8 15.3 17.4
2017-Jul-25 03:00S 32°30' E 179°06'0 0.0 310 / 111008.0 15.4 17.6
2017-Jul-25 02:00S 32°30' E 179°06'6 6.0 300 / 121008.4 15.4 17.7
2017-Jul-25 01:00S 32°24' E 179°06'6 6.0 270 / 131009.0 16.5 17.7
2017-Jul-25 00:00S 32°30' E 179°06'1211.8 290 / 121009.9 16.9 17.7
2017-Jul-24 23:00S 32°24' E 178°54'0 0.0 290 / 101010.6 17.0 17.7
2017-Jul-24 22:00S 32°24' E 178°54'0 0.0 280 / 121010.7 16.8 17.7
2017-Jul-24 21:00S 32°24' E 178°54'5 5.1 270 / 121010.5 16.2 17.7
2017-Jul-24 20:00S 32°24' E 178°48'1615.7 270 / 131010.1 15.9 17.5
2017-Jul-24 19:00S 32°12' E 178°36'0 0.0 270 / 141010.2 16.0 17.6
2017-Jul-24 18:00S 32°12' E 178°36'0 0.0 270 / 151010.2 15.8 17.7
2017-Jul-24 17:00S 32°12' E 178°36'0 0.0 270 / 121010.3 15.3 17.7
2017-Jul-24 16:00S 32°12' E 178°36'8 7.9 280 / 141010.6 15.7 17.8
2017-Jul-24 15:00S 32°06' E 178°30'1615.7 280 / 141011.0 16.0 17.6
2017-Jul-24 14:00S 31°54' E 178°18'6 6.0 270 / 141011.4 16.1 17.6
2017-Jul-24 13:00S 31°48' E 178°18'0 0.0 270 / 121011.7 15.7 17.7
2017-Jul-24 12:00S 31°48' E 178°18'0 0.0 250 / 141012.2 15.1 17.7
2017-Jul-24 11:00S 31°48' E 178°18'0 0.0 270 / 151012.4 16.5 17.8
2017-Jul-24 10:00S 31°48' E 178°18'1211.8 250 / 161012.5 16.3 17.9
2017-Jul-24 09:00S 31°42' E 178°06'8 7.9 240 / 141012.7 16.4 18.1
2017-Jul-24 08:00S 31°36' E 178°00'8 7.9 240 / 131012.8 16.1 17.8
2017-Jul-24 07:00S 31°30' E 177°54'8 7.9 240 / 171012.9 16.3 18.6
2017-Jul-24 06:00S 31°24' E 177°48'0 0.0 230 / 171013.0 15.8 18.7
2017-Jul-24 05:00S 31°24' E 177°48'0 0.0 230 / 161012.7 16.2 18.7
2017-Jul-24 04:00S 31°24' E 177°48'6 6.0 240 / 151012.8 16.2 18.7
2017-Jul-24 03:00S 31°18' E 177°48'1211.9 240 / 151012.8 16.5 18.8
2017-Jul-24 02:00S 31°12' E 177°36'8 7.9 240 / 161013.2 16.5 18.7
2017-Jul-24 01:00S 31°06' E 177°30'8 7.9 230 / 171013.7 16.4 18.7
2017-Jul-24 00:00S 31°00' E 177°24'8 7.9 250 / 171014.6 16.6 18.8
2017-Jul-23 23:00S 30°54' E 177°18'0 0.0 240 / 191015.2 17.1 18.8
2017-Jul-23 22:00S 30°54' E 177°18'0 0.0 230 / 201015.1 17.3 18.8
2017-Jul-23 21:00S 30°54' E 177°18'0 0.0 230 / 191014.7 15.8 18.8
2017-Jul-23 20:00S 30°54' E 177°18'1212.0 240 / 161014.0 16.0 18.8
2017-Jul-23 19:00S 31°06' E 177°18'8 7.9 240 / 171013.3 16.4 18.6
2017-Jul-23 18:00S 31°12' E 177°12'1313.0 240 / 201012.7 16.6 18.6
2017-Jul-23 17:00S 31°24' E 177°06'8 7.9 240 / 221012.4 16.4 18.9
2017-Jul-23 16:00S 31°30' E 177°00'1313.0 240 / 231012.4 16.5 18.8
2017-Jul-23 15:00S 31°42' E 176°54'1313.0 250 / 191012.4 16.5 18.7
2017-Jul-23 14:00S 31°54' E 176°48'8 7.9 240 / 171012.2 16.4 18.9
2017-Jul-23 13:00S 32°00' E 176°42'1313.0 250 / 201012.1 15.9 18.1
2017-Jul-23 12:00S 32°12' E 176°36'1313.0 250 / 191011.9 15.8 17.6
2017-Jul-23 11:00S 32°24' E 176°30'8 7.9 250 / 191011.7 15.7 17.6
2017-Jul-23 10:00S 32°30' E 176°24'1313.0 240 / 191011.4 15.8 17.6
2017-Jul-23 09:00S 32°42' E 176°18'8 7.8 250 / 201010.8 15.9 17.6
2017-Jul-23 08:00S 32°48' E 176°12'1313.0 240 / 181010.2 15.7 17.5
2017-Jul-23 07:00S 33°00' E 176°06'1313.0 250 / 171009.7 15.4 17.0
2017-Jul-23 06:00S 33°12' E 176°00'8 7.8 240 / 201009.0 15.1 17.2
2017-Jul-23 05:00S 33°18' E 175°54'1313.0 250 / 231008.4 15.6 17.2
2017-Jul-23 04:00S 33°30' E 175°48'8 7.8 250 / 221008.1 15.7 17.1
2017-Jul-23 03:00S 33°36' E 175°42'1313.0 250 / 201007.9 15.7 17.2
2017-Jul-23 02:00S 33°48' E 175°36'8 7.8 240 / 171008.0 15.8 17.1
2017-Jul-23 01:00S 33°54' E 175°30'8 7.8 230 / 131008.4 15.3 17.1
2017-Jul-23 00:00S 34°00' E 175°24'0 0.0 240 / 161008.5 15.5 17.1
2017-Jul-22 23:00S 34°00' E 175°24'8 7.8 250 / 181008.3 15.9 17.1
2017-Jul-22 22:00S 33°54' E 175°30'8 7.8 240 / 201007.9 15.8 17.1
2017-Jul-22 21:00S 33°48' E 175°36'1313.0 250 / 221007.1 15.3 17.1
2017-Jul-22 20:00S 33°36' E 175°42'1313.0 250 / 231006.3 15.7 17.2
2017-Jul-22 19:00S 33°24' E 175°36'8 7.8 260 / 241005.6 15.5 17.1
2017-Jul-22 18:00S 33°18' E 175°42'8 7.8 260 / 261005.0 15.7 17.1
2017-Jul-22 17:00S 33°12' E 175°48'1313.0 260 / 261004.6 15.4 17.3
2017-Jul-22 16:00S 33°00' E 175°54'8 7.8 260 / 261004.6 15.7 17.0
2017-Jul-22 15:00S 32°54' E 176°00'1313.0 270 / 281004.6 16.0 17.3
2017-Jul-22 14:00S 32°42' E 176°06'8 7.8 270 / 291004.5 15.7 17.5
2017-Jul-22 13:00S 32°36' E 176°12'8 7.8 270 / 291004.4 16.1 17.7
2017-Jul-22 12:00S 32°30' E 176°18'1313.0 270 / 271004.4 16.6 17.6
2017-Jul-22 11:00S 32°18' E 176°24'8 7.9 280 / 311004.1 17.0 17.6
2017-Jul-22 10:00S 32°12' E 176°30'6 6.0 280 / 331003.9 16.9 17.7
2017-Jul-22 09:00S 32°06' E 176°30'1313.0 280 / 321003.7 17.6 18.7
2017-Jul-22 08:00S 31°54' E 176°36'8 7.9 290 / 331003.6 17.6 18.9
2017-Jul-22 07:00S 31°48' E 176°42'8 7.9 290 / 351003.2 17.9 18.8
2017-Jul-22 06:00S 31°42' E 176°48'8 7.9 290 / 351003.0 18.0 18.9
2017-Jul-22 05:00S 31°36' E 176°54'1212.0 290 / 361002.9 18.3 19.0
2017-Jul-22 04:00S 31°24' E 176°54'8 7.9 290 / 351003.3 18.3 19.0
2017-Jul-22 03:00S 31°18' E 177°00'8 7.9 290 / 341003.8 18.5 18.9
2017-Jul-22 02:00S 31°12' E 177°06'1313.1 290 / 311004.6 18.1 18.4
2017-Jul-22 01:00S 31°00' E 177°12'8 7.9 290 / 331005.5 18.7 18.6
2017-Jul-22 00:00S 30°54' E 177°18'0 0.0 290 / 321006.7 18.8 18.9
2017-Jul-21 23:00S 30°54' E 177°18'0 0.0 290 / 371007.3 19.2 18.9
2017-Jul-21 22:00S 30°54' E 177°18'0 0.0 300 / 321006.4 18.6 18.9
2017-Jul-21 21:00S 30°54' E 177°18'0 0.0 300 / 311006.0 18.5 18.9
2017-Jul-21 20:00S 30°54' E 177°18'0 0.0 300 / 341005.9 17.9 18.9
2017-Jul-21 19:00S 30°54' E 177°18'0 0.0 310 / 311005.3 18.0 18.9
2017-Jul-21 18:00S 30°54' E 177°18'5 5.1 310 / 331005.2 17.2 18.9
2017-Jul-21 17:00S 30°54' E 177°24'0 0.0 300 / 351005.1 18.3 18.9
2017-Jul-21 16:00S 30°54' E 177°24'8 7.9 300 / 321005.3 18.6 18.9
2017-Jul-21 15:00S 31°00' E 177°30'8 7.9 290 / 321005.5 18.4 18.9
2017-Jul-21 14:00S 30°54' E 177°24'5 5.1 300 / 311005.9 17.9 18.9
2017-Jul-21 13:00S 30°54' E 177°18'0 0.0 290 / 311006.3 16.1 18.9
2017-Jul-21 12:00S 30°54' E 177°18'8 7.9 290 / 301006.2 18.0 18.8
2017-Jul-21 11:00S 30°48' E 177°12'6 6.0 300 / 281006.1 18.6 18.9
2017-Jul-21 10:00S 30°42' E 177°12'5 5.2 300 / 251006.4 17.9 18.9
2017-Jul-21 09:00S 30°42' E 177°06'8 7.9 290 / 301006.3 17.3 19.0
2017-Jul-21 08:00S 30°36' E 177°00'8 7.9 310 / 311005.8 19.0 19.0
2017-Jul-21 07:00S 30°30' E 176°54'0 0.0 310 / 351005.6 19.2 19.1
2017-Jul-21 06:00S 30°30' E 176°54'0 0.0 320 / 351005.6 19.1 19.1
2017-Jul-21 05:00S 30°30' E 176°54'0 0.0 310 / 331005.6 19.2 19.1
2017-Jul-21 04:00S 30°30' E 176°54'0 0.0 310 / 341005.8 19.5 19.1
2017-Jul-21 03:00S 30°30' E 176°54'0 0.0 310 / 331006.0 19.5 19.1
2017-Jul-21 02:00S 30°30' E 176°54'5 5.2 310 / 301006.5 19.6 19.1
2017-Jul-21 01:00S 30°30' E 176°48'6 6.0 310 / 281007.3 19.8 19.1
2017-Jul-21 00:00S 30°24' E 176°48'8 7.9 300 / 291008.6 19.6 19.1
2017-Jul-20 23:00S 30°30' E 176°54'0 0.0 300 / 281008.9 19.3 19.1
2017-Jul-20 22:00S 30°30' E 176°54'0 0.0 300 / 281008.5 19.3 19.1
2017-Jul-20 21:00S 30°30' E 176°54'5 5.2 300 / 231008.1 18.4 19.0
2017-Jul-20 20:00S 30°30' E 176°48'5 5.2 290 / 301007.2 18.5 19.0
2017-Jul-20 19:00S 30°30' E 176°54'6 6.0 300 / 321006.3 18.4 19.0
2017-Jul-20 18:00S 30°24' E 176°54'5 5.2 300 / 311005.1 18.4 19.0
2017-Jul-20 17:00S 30°24' E 176°48'5 5.2 300 / 301004.8 18.6 19.0
2017-Jul-20 16:00S 30°24' E 176°54'6 6.0 300 / 311005.0 18.4 19.0
2017-Jul-20 15:00S 30°30' E 176°54'6 6.0 290 / 321005.0 18.5 19.0
2017-Jul-20 14:00S 30°24' E 176°54'5 5.2 300 / 321004.5 18.4 19.0
2017-Jul-20 13:00S 30°24' E 176°48'0 0.0 290 / 311004.2 18.5 19.0
2017-Jul-20 12:00S 30°24' E 176°48'8 7.9 290 / 311003.8 18.7 19.0
2017-Jul-20 11:00S 30°18' E 176°42'0 0.0 300 / 321003.6 18.8 19.0
2017-Jul-20 10:00S 30°18' E 176°42'0 0.0 300 / 361003.7 18.7 19.0
2017-Jul-20 09:00S 30°18' E 176°42'8 7.9 290 / 371002.9 18.9 19.0
2017-Jul-20 08:00S 30°24' E 176°48'0 0.0 310 / 371002.3 18.2 19.1
2017-Jul-20 07:00S 30°24' E 176°48'0 0.0 320 / 351002.0 16.7 19.1
2017-Jul-20 06:00S 30°24' E 176°48'0 0.0 300 / 341002.8 16.3 19.1
2017-Jul-20 05:00S 30°24' E 176°48'8 7.9 280 / 381001.6 16.3 19.1
2017-Jul-20 04:00S 30°18' E 176°42'0 0.0 270 / 27999.9 17.0 19.0
2017-Jul-20 03:00S 30°18' E 176°42'8 7.9 340 / 31999.6 19.3 19.2
2017-Jul-20 02:00S 30°12' E 176°36'8 7.9 360 / 381000.2 21.1 19.4
2017-Jul-20 01:00S 30°06' E 176°30'6 6.0 350 / 281002.3 20.0 19.5
2017-Jul-20 00:00S 30°00' E 176°30'0 0.0 020 / 331003.9 19.5 19.6
2017-Jul-19 23:00S 30°00' E 176°30'0 0.0 020 / 331006.3 19.2 19.6
2017-Jul-19 22:00S 30°00' E 176°30'0 0.0 020 / 331007.6 19.5 19.6
2017-Jul-19 21:00S 30°00' E 176°30'1010.4 020 / 331008.0 20.0 19.5
2017-Jul-19 20:00S 30°00' E 176°18'5 5.2 020 / 371007.9 19.6 19.3
2017-Jul-19 19:00S 30°00' E 176°12'1010.4 010 / 361008.2 18.8 19.2
2017-Jul-19 18:00S 30°00' E 176°00'5 5.2 010 / 301008.5 19.1 19.0
2017-Jul-19 17:00S 30°00' E 175°54'0 0.0 010 / 281009.4 19.2 18.7
2017-Jul-19 16:00S 30°00' E 175°54'0 0.0 010 / 281010.2 19.2 18.7
2017-Jul-19 15:00S 30°00' E 175°54'0 0.0 010 / 281010.9 19.2 18.7
2017-Jul-19 14:00S 30°00' E 175°54'1212.0 010 / 321011.0 19.2 18.7
2017-Jul-19 13:00S 30°06' E 175°42'8 7.9 010 / 311011.1 18.9 18.7
2017-Jul-19 12:00S 30°00' E 175°36'5 5.2 010 / 261011.9 18.9 18.4
2017-Jul-19 11:00S 30°00' E 175°30'5 5.2 030 / 151013.2 18.5 18.5
2017-Jul-19 10:00S 30°00' E 175°24'0 0.0 020 / 171013.9 18.4 18.6
2017-Jul-19 09:00S 30°00' E 175°24'5 5.2 010 / 171014.2 18.9 18.6
2017-Jul-19 08:00S 30°00' E 175°30'5 5.2 010 / 171014.0 18.8 18.6
2017-Jul-19 07:00S 30°00' E 175°24'1010.4 030 / 151014.1 18.5 18.6
2017-Jul-19 06:00S 30°00' E 175°12'1010.4 030 / 151014.1 18.4 18.6
2017-Jul-19 05:00S 30°00' E 175°00'5 5.2 090 / 101014.3 18.1 18.6
2017-Jul-19 04:00S 30°00' E 174°54'0 0.0 100 / 81014.7 17.9 18.7
2017-Jul-19 03:00S 30°00' E 174°54'0 0.0 110 / 61015.2 17.6 18.7
2017-Jul-19 02:00S 30°00' E 174°54'0 0.0 090 / 41016.0 17.4 18.6
2017-Jul-19 01:00S 30°00' E 174°54'5 5.2 090 / 41017.0 17.7 18.6
2017-Jul-19 00:00S 30°00' E 174°48'1010.4 130 / 31018.2 17.5 18.2
2017-Jul-18 23:00S 30°00' E 174°36'5 5.2 120 / 21018.9 17.4 18.1
2017-Jul-18 22:00S 30°00' E 174°30'5 5.2 130 / 21018.8 18.2 18.0
2017-Jul-18 21:00S 30°00' E 174°24'0 0.0 240 / 21018.6 18.6 18.0
2017-Jul-18 20:00S 30°00' E 174°24'0 0.0 230 / 41018.2 19.0 18.0
2017-Jul-18 19:00S 30°00' E 174°24'5 5.2 240 / 61017.8 17.8 18.0
2017-Jul-18 18:00S 30°00' E 174°18'1010.4 260 / 81017.6 18.1 18.6
2017-Jul-18 17:00S 30°00' E 174°06'5 5.2 280 / 81017.5 18.0 19.0
2017-Jul-18 16:00S 30°00' E 174°00'0 0.0 270 / 91017.8 17.8 19.0
2017-Jul-18 15:00S 30°00' E 174°00'0 0.0 290 / 91018.0 17.9 19.0
2017-Jul-18 14:00S 30°00' E 174°00'5 5.2 290 / 91018.4 17.9 19.0
2017-Jul-18 13:00S 30°00' E 173°54'1010.4 300 / 61018.7 17.8 18.9
2017-Jul-18 12:00S 30°00' E 173°42'1010.4 340 / 61019.1 17.7 19.0
2017-Jul-18 11:00S 30°00' E 173°30'5 5.2 350 / 51019.1 16.7 18.9
2017-Jul-18 10:00S 30°00' E 173°24'0 0.0 320 / 31019.3 16.1 18.9
2017-Jul-18 09:00S 30°00' E 173°24'5 5.2 310 / 101019.6 16.6 18.9
2017-Jul-18 08:00S 30°00' E 173°30'5 5.2 300 / 141019.4 17.4 18.9
2017-Jul-18 07:00S 30°00' E 173°24'0 0.0 320 / 151019.1 18.4 19.0
2017-Jul-18 06:00S 30°00' E 173°24'   330 / 131018.4 18.5 18.9
Track history (hours):
 
Tides and Currents Weather Stations Pressure Air Temp Water Temp Dewpoint Dewpoint Depression Visibility Wind Speed Wind Dir Waves Ship Positions

Oceanographic research ship Nathaniel B. Palmer (USA)

Contact: Ethan Norris, ethan.norris.contractor@usap.gov

Detailed information on ship capabilities available from University of Delaware's Ocean Information Center and ARCUS's ALIAS (Arctic Logistics Information and Support) project.

Owner: OFFSHORE SERVICE VESSELS, GALLIANO, LA. More information available from US FCC via Universal Licensing System and Coast Guard Vessel Documentation Center.

Last reported at 2017-Jul-28 06:00 UTC. Time now 2017-Jul-28 06:29 UTC.
Position S 32°24' W 175°42'.

Type: Other ship. MMSI: 366610000.

Wind from 290 at 26 knots

Barometer 1009.9 mb
Air temperature 14.8 ° C
Water temperature 17.8 ° C

Date/timePositionNaut miles runAvg speedWind from/ knotsBaromVisibWave heightAir tempDewpointWater temp
2017-Jul-28 06:00S 32°24' W 175°42'8 7.9 290 / 261009.9 14.8 17.8
2017-Jul-28 05:00S 32°30' W 175°48'1211.8 310 / 291008.8 17.6 17.9
2017-Jul-28 04:00S 32°24' W 176°00'1211.8 320 / 231008.5 17.1 18.0
2017-Jul-28 03:00S 32°30' W 176°12'6 6.0 330 / 201009.1 16.5 17.8
2017-Jul-28 02:00S 32°24' W 176°12'0 0.0 330 / 291009.8 16.7 17.7
2017-Jul-28 01:00S 32°24' W 176°12'6 6.0 330 / 271010.5 17.2 17.6
2017-Jul-28 00:00S 32°30' W 176°12'0 0.0 330 / 261011.6 17.2 17.6
2017-Jul-27 23:00S 32°30' W 176°12'5 5.1 330 / 271012.7 16.9 17.6
2017-Jul-27 22:00S 32°30' W 176°18'1010.1 330 / 191012.9 17.0 17.8
2017-Jul-27 21:00S 32°30' W 176°30'1010.1 330 / 181012.7 16.7 18.1
2017-Jul-27 20:00S 32°30' W 176°42'0 0.0 330 / 231012.8 16.0 17.7
2017-Jul-27 19:00S 32°30' W 176°42'0 0.0 340 / 251012.6 17.1 17.6
2017-Jul-27 18:00S 32°30' W 176°42'0 0.0 340 / 241012.6 16.8 17.5
2017-Jul-27 17:00S 32°30' W 176°42'0 0.0 330 / 221012.9 16.6 17.5
2017-Jul-27 16:00S 32°30' W 176°42'0 0.0 330 / 211013.5 16.4 17.5
2017-Jul-27 15:00S 32°30' W 176°42'1010.1 320 / 161013.9 16.3 17.3
2017-Jul-27 14:00S 32°30' W 176°54'1010.1 320 / 151014.3 16.1 17.2
2017-Jul-27 13:00S 32°30' W 177°06'8 7.9 320 / 141014.5 16.0 17.2
2017-Jul-27 12:00S 32°24' W 177°12'0 0.0 330 / 171014.8 15.9 17.2
2017-Jul-27 11:00S 32°24' W 177°12'0 0.0 330 / 141015.0 15.9 17.2
2017-Jul-27 10:00S 32°24' W 177°12'0 0.0 320 / 131015.4 16.0 17.2
2017-Jul-27 09:00S 32°24' W 177°12'0 0.0 330 / 121015.6 16.0 17.3
2017-Jul-27 08:00S 32°24' W 177°12'5 5.1 320 / 111015.6 16.0 17.3
2017-Jul-27 07:00S 32°24' W 177°18'1010.1 300 / 101015.6 16.0 17.2
2017-Jul-27 06:00S 32°24' W 177°30'5 5.1 290 / 121015.4 16.0 17.2
2017-Jul-27 05:00S 32°24' W 177°36'0 0.0 290 / 121015.2 16.2 17.3
2017-Jul-27 04:00S 32°24' W 177°36'0 0.0 280 / 101014.9 16.4 17.3
2017-Jul-27 03:00S 32°24' W 177°36'0 0.0 290 / 91014.7 16.6 17.3
2017-Jul-27 02:00S 32°24' W 177°36'0 0.0 280 / 91014.9 16.4 17.3
2017-Jul-27 01:00S 32°24' W 177°36'1010.1 260 / 111015.1 16.3 17.2
2017-Jul-27 00:00S 32°24' W 177°48'8 7.9 250 / 91015.8 16.1 16.8
2017-Jul-26 23:00S 32°30' W 177°54'0 0.0 230 / 91016.1 16.6 17.0
2017-Jul-26 22:00S 32°30' W 177°54'0 0.0 240 / 111015.9 15.7 16.9
2017-Jul-26 21:00S 32°30' W 177°54'0 0.0 230 / 131015.2 15.6 16.9
2017-Jul-26 20:00S 32°30' W 177°54'0 0.0 220 / 131014.7 15.8 17.0
2017-Jul-26 19:00S 32°30' W 177°54'8 7.9 220 / 151014.2 15.4 17.0
2017-Jul-26 18:00S 32°24' W 178°00'1010.1 230 / 161013.8 15.4 16.9
2017-Jul-26 17:00S 32°24' W 178°12'0 0.0 220 / 151013.5 15.3 16.8
2017-Jul-26 16:00S 32°24' W 178°12'0 0.0 230 / 161013.6 15.3 16.9
2017-Jul-26 15:00S 32°24' W 178°12'0 0.0 220 / 161013.6 15.3 16.9
2017-Jul-26 14:00S 32°24' W 178°12'0 0.0 220 / 181013.5 15.2 16.9
2017-Jul-26 13:00S 32°24' W 178°12'5 5.1 220 / 201013.2 15.0 16.9
2017-Jul-26 12:00S 32°24' W 178°18'8 7.9 220 / 191013.0 15.1 17.1
2017-Jul-26 11:00S 32°30' W 178°24'0 0.0 220 / 181013.0 15.0 17.1
2017-Jul-26 10:00S 32°30' W 178°24'0 0.0 220 / 201012.8 14.7 17.0
2017-Jul-26 09:00S 32°30' W 178°24'6 6.0 230 / 211012.5 14.9 17.1
2017-Jul-26 08:00S 32°24' W 178°24'6 6.0 230 / 221012.2 15.1 17.2
2017-Jul-26 07:00S 32°30' W 178°24'1211.8 220 / 201011.7 15.3 17.1
2017-Jul-26 06:00S 32°24' W 178°36'0 0.0 230 / 201011.3 15.4 16.9
2017-Jul-26 05:00S 32°24' W 178°36'0 0.0 230 / 211010.8 15.7 16.9
2017-Jul-26 04:00S 32°24' W 178°36'0 0.0 220 / 231010.3 16.0 16.9
2017-Jul-26 03:00S 32°24' W 178°36'1010.1 230 / 211009.9 15.7 17.0
2017-Jul-26 02:00S 32°24' W 178°48'5 5.1 230 / 201010.0 14.9 17.1
2017-Jul-26 01:00S 32°24' W 178°54'6 6.0 210 / 181010.3 15.6 17.0
2017-Jul-26 00:00S 32°30' W 178°54'6 6.0 210 / 191010.8 15.7 17.0
2017-Jul-25 23:00S 32°24' W 178°54'1010.1 220 / 171011.2 13.9 16.8
2017-Jul-25 22:00S 32°24' W 179°06'8 7.9 220 / 141010.7 15.8 16.7
2017-Jul-25 21:00S 32°30' W 179°12'6 6.0 220 / 161010.2 15.7 16.7
2017-Jul-25 20:00S 32°24' W 179°12'1010.1 220 / 151009.8 15.3 16.7
2017-Jul-25 19:00S 32°24' W 179°24'6 6.0 220 / 141009.3 15.3 16.8
2017-Jul-25 18:00S 32°30' W 179°24'6 6.0 210 / 161008.7 15.1 17.0
2017-Jul-25 17:00S 32°24' W 179°24'8 7.9 200 / 151008.3 15.0 17.0
2017-Jul-25 16:00S 32°30' W 179°30'5 5.1 210 / 151008.1 14.9 17.0
2017-Jul-25 15:00S 32°30' W 179°36'1010.1 220 / 151008.1 15.0 17.0
2017-Jul-25 14:00S 32°30' W 179°48'1176211761.7 220 / 151008.3 15.2 17.6
2017-Jul-25 13:00S 32°24' E 052°30'64546454.0 220 / 141008.3 15.2 17.6
2017-Jul-25 12:00S 32°24' E 179°54'0 0.0 210 / 121008.2 14.6 17.7
2017-Jul-25 11:00S 32°24' E 179°54'0 0.0 230 / 101008.3 15.0 17.7
2017-Jul-25 10:00S 32°24' E 179°54'5 5.1 300 / 81008.4 13.8 17.7
2017-Jul-25 09:00S 32°24' E 179°48'1515.2 260 / 61008.2 14.6 17.7
2017-Jul-25 08:00S 32°24' E 179°30'5 5.1 240 / 91008.1 14.8 17.5
2017-Jul-25 07:00S 32°24' E 179°24'0 0.0 230 / 131007.8 14.6 17.4
2017-Jul-25 06:00S 32°24' E 179°24'0 0.0 290 / 111007.5 14.2 17.4
2017-Jul-25 05:00S 32°24' E 179°24'8 7.9 310 / 111007.4 15.1 17.4
2017-Jul-25 04:00S 32°30' E 179°18'1010.1 310 / 101007.8 15.3 17.4
2017-Jul-25 03:00S 32°30' E 179°06'0 0.0 310 / 111008.0 15.4 17.6
2017-Jul-25 02:00S 32°30' E 179°06'6 6.0 300 / 121008.4 15.4 17.7
2017-Jul-25 01:00S 32°24' E 179°06'6 6.0 270 / 131009.0 16.5 17.7
2017-Jul-25 00:00S 32°30' E 179°06'1211.8 290 / 121009.9 16.9 17.7
2017-Jul-24 23:00S 32°24' E 178°54'0 0.0 290 / 101010.6 17.0 17.7
2017-Jul-24 22:00S 32°24' E 178°54'0 0.0 280 / 121010.7 16.8 17.7
2017-Jul-24 21:00S 32°24' E 178°54'5 5.1 270 / 121010.5 16.2 17.7
2017-Jul-24 20:00S 32°24' E 178°48'1615.7 270 / 131010.1 15.9 17.5
2017-Jul-24 19:00S 32°12' E 178°36'0 0.0 270 / 141010.2 16.0 17.6
2017-Jul-24 18:00S 32°12' E 178°36'0 0.0 270 / 151010.2 15.8 17.7
2017-Jul-24 17:00S 32°12' E 178°36'0 0.0 270 / 121010.3 15.3 17.7
2017-Jul-24 16:00S 32°12' E 178°36'8 7.9 280 / 141010.6 15.7 17.8
2017-Jul-24 15:00S 32°06' E 178°30'1615.7 280 / 141011.0 16.0 17.6
2017-Jul-24 14:00S 31°54' E 178°18'6 6.0 270 / 141011.4 16.1 17.6
2017-Jul-24 13:00S 31°48' E 178°18'0 0.0 270 / 121011.7 15.7 17.7
2017-Jul-24 12:00S 31°48' E 178°18'0 0.0 250 / 141012.2 15.1 17.7
2017-Jul-24 11:00S 31°48' E 178°18'0 0.0 270 / 151012.4 16.5 17.8
2017-Jul-24 10:00S 31°48' E 178°18'1211.8 250 / 161012.5 16.3 17.9
2017-Jul-24 09:00S 31°42' E 178°06'8 7.9 240 / 141012.7 16.4 18.1
2017-Jul-24 08:00S 31°36' E 178°00'8 7.9 240 / 131012.8 16.1 17.8
2017-Jul-24 07:00S 31°30' E 177°54'8 7.9 240 / 171012.9 16.3 18.6
2017-Jul-24 06:00S 31°24' E 177°48'0 0.0 230 / 171013.0 15.8 18.7
2017-Jul-24 05:00S 31°24' E 177°48'0 0.0 230 / 161012.7 16.2 18.7
2017-Jul-24 04:00S 31°24' E 177°48'6 6.0 240 / 151012.8 16.2 18.7
2017-Jul-24 03:00S 31°18' E 177°48'1211.9 240 / 151012.8 16.5 18.8
2017-Jul-24 02:00S 31°12' E 177°36'8 7.9 240 / 161013.2 16.5 18.7
2017-Jul-24 01:00S 31°06' E 177°30'8 7.9 230 / 171013.7 16.4 18.7
2017-Jul-24 00:00S 31°00' E 177°24'8 7.9 250 / 171014.6 16.6 18.8
2017-Jul-23 23:00S 30°54' E 177°18'0 0.0 240 / 191015.2 17.1 18.8
2017-Jul-23 22:00S 30°54' E 177°18'0 0.0 230 / 201015.1 17.3 18.8
2017-Jul-23 21:00S 30°54' E 177°18'0 0.0 230 / 191014.7 15.8 18.8
2017-Jul-23 20:00S 30°54' E 177°18'1212.0 240 / 161014.0 16.0 18.8
2017-Jul-23 19:00S 31°06' E 177°18'8 7.9 240 / 171013.3 16.4 18.6
2017-Jul-23 18:00S 31°12' E 177°12'1313.0 240 / 201012.7 16.6 18.6
2017-Jul-23 17:00S 31°24' E 177°06'8 7.9 240 / 221012.4 16.4 18.9
2017-Jul-23 16:00S 31°30' E 177°00'1313.0 240 / 231012.4 16.5 18.8
2017-Jul-23 15:00S 31°42' E 176°54'1313.0 250 / 191012.4 16.5 18.7
2017-Jul-23 14:00S 31°54' E 176°48'8 7.9 240 / 171012.2 16.4 18.9
2017-Jul-23 13:00S 32°00' E 176°42'1313.0 250 / 201012.1 15.9 18.1
2017-Jul-23 12:00S 32°12' E 176°36'1313.0 250 / 191011.9 15.8 17.6
2017-Jul-23 11:00S 32°24' E 176°30'8 7.9 250 / 191011.7 15.7 17.6
2017-Jul-23 10:00S 32°30' E 176°24'1313.0 240 / 191011.4 15.8 17.6
2017-Jul-23 09:00S 32°42' E 176°18'8 7.8 250 / 201010.8 15.9 17.6
2017-Jul-23 08:00S 32°48' E 176°12'1313.0 240 / 181010.2 15.7 17.5
2017-Jul-23 07:00S 33°00' E 176°06'1313.0 250 / 171009.7 15.4 17.0
2017-Jul-23 06:00S 33°12' E 176°00'8 7.8 240 / 201009.0 15.1 17.2
2017-Jul-23 05:00S 33°18' E 175°54'1313.0 250 / 231008.4 15.6 17.2
2017-Jul-23 04:00S 33°30' E 175°48'8 7.8 250 / 221008.1 15.7 17.1
2017-Jul-23 03:00S 33°36' E 175°42'1313.0 250 / 201007.9 15.7 17.2
2017-Jul-23 02:00S 33°48' E 175°36'8 7.8 240 / 171008.0 15.8 17.1
2017-Jul-23 01:00S 33°54' E 175°30'8 7.8 230 / 131008.4 15.3 17.1
2017-Jul-23 00:00S 34°00' E 175°24'0 0.0 240 / 161008.5 15.5 17.1
2017-Jul-22 23:00S 34°00' E 175°24'8 7.8 250 / 181008.3 15.9 17.1
2017-Jul-22 22:00S 33°54' E 175°30'8 7.8 240 / 201007.9 15.8 17.1
2017-Jul-22 21:00S 33°48' E 175°36'1313.0 250 / 221007.1 15.3 17.1
2017-Jul-22 20:00S 33°36' E 175°42'1313.0 250 / 231006.3 15.7 17.2
2017-Jul-22 19:00S 33°24' E 175°36'8 7.8 260 / 241005.6 15.5 17.1
2017-Jul-22 18:00S 33°18' E 175°42'8 7.8 260 / 261005.0 15.7 17.1
2017-Jul-22 17:00S 33°12' E 175°48'1313.0 260 / 261004.6 15.4 17.3
2017-Jul-22 16:00S 33°00' E 175°54'8 7.8 260 / 261004.6 15.7 17.0
2017-Jul-22 15:00S 32°54' E 176°00'1313.0 270 / 281004.6 16.0 17.3
2017-Jul-22 14:00S 32°42' E 176°06'8 7.8 270 / 291004.5 15.7 17.5
2017-Jul-22 13:00S 32°36' E 176°12'8 7.8 270 / 291004.4 16.1 17.7
2017-Jul-22 12:00S 32°30' E 176°18'1313.0 270 / 271004.4 16.6 17.6
2017-Jul-22 11:00S 32°18' E 176°24'8 7.9 280 / 311004.1 17.0 17.6
2017-Jul-22 10:00S 32°12' E 176°30'6 6.0 280 / 331003.9 16.9 17.7
2017-Jul-22 09:00S 32°06' E 176°30'1313.0 280 / 321003.7 17.6 18.7
2017-Jul-22 08:00S 31°54' E 176°36'8 7.9 290 / 331003.6 17.6 18.9
2017-Jul-22 07:00S 31°48' E 176°42'8 7.9 290 / 351003.2 17.9 18.8
2017-Jul-22 06:00S 31°42' E 176°48'8 7.9 290 / 351003.0 18.0 18.9
2017-Jul-22 05:00S 31°36' E 176°54'1212.0 290 / 361002.9 18.3 19.0
2017-Jul-22 04:00S 31°24' E 176°54'8 7.9 290 / 351003.3 18.3 19.0
2017-Jul-22 03:00S 31°18' E 177°00'8 7.9 290 / 341003.8 18.5 18.9
2017-Jul-22 02:00S 31°12' E 177°06'1313.1 290 / 311004.6 18.1 18.4
2017-Jul-22 01:00S 31°00' E 177°12'8 7.9 290 / 331005.5 18.7 18.6
2017-Jul-22 00:00S 30°54' E 177°18'0 0.0 290 / 321006.7 18.8 18.9
2017-Jul-21 23:00S 30°54' E 177°18'0 0.0 290 / 371007.3 19.2 18.9
2017-Jul-21 22:00S 30°54' E 177°18'0 0.0 300 / 321006.4 18.6 18.9
2017-Jul-21 21:00S 30°54' E 177°18'0 0.0 300 / 311006.0 18.5 18.9
2017-Jul-21 20:00S 30°54' E 177°18'0 0.0 300 / 341005.9 17.9 18.9
2017-Jul-21 19:00S 30°54' E 177°18'0 0.0 310 / 311005.3 18.0 18.9
2017-Jul-21 18:00S 30°54' E 177°18'5 5.1 310 / 331005.2 17.2 18.9
2017-Jul-21 17:00S 30°54' E 177°24'0 0.0 300 / 351005.1 18.3 18.9
2017-Jul-21 16:00S 30°54' E 177°24'8 7.9 300 / 321005.3 18.6 18.9
2017-Jul-21 15:00S 31°00' E 177°30'8 7.9 290 / 321005.5 18.4 18.9
2017-Jul-21 14:00S 30°54' E 177°24'5 5.1 300 / 311005.9 17.9 18.9
2017-Jul-21 13:00S 30°54' E 177°18'0 0.0 290 / 311006.3 16.1 18.9
2017-Jul-21 12:00S 30°54' E 177°18'8 7.9 290 / 301006.2 18.0 18.8
2017-Jul-21 11:00S 30°48' E 177°12'6 6.0 300 / 281006.1 18.6 18.9
2017-Jul-21 10:00S 30°42' E 177°12'5 5.2 300 / 251006.4 17.9 18.9
2017-Jul-21 09:00S 30°42' E 177°06'8 7.9 290 / 301006.3 17.3 19.0
2017-Jul-21 08:00S 30°36' E 177°00'8 7.9 310 / 311005.8 19.0 19.0
2017-Jul-21 07:00S 30°30' E 176°54'0 0.0 310 / 351005.6 19.2 19.1
2017-Jul-21 06:00S 30°30' E 176°54'0 0.0 320 / 351005.6 19.1 19.1
2017-Jul-21 05:00S 30°30' E 176°54'0 0.0 310 / 331005.6 19.2 19.1
2017-Jul-21 04:00S 30°30' E 176°54'0 0.0 310 / 341005.8 19.5 19.1
2017-Jul-21 03:00S 30°30' E 176°54'0 0.0 310 / 331006.0 19.5 19.1
2017-Jul-21 02:00S 30°30' E 176°54'5 5.2 310 / 301006.5 19.6 19.1
2017-Jul-21 01:00S 30°30' E 176°48'6 6.0 310 / 281007.3 19.8 19.1
2017-Jul-21 00:00S 30°24' E 176°48'8 7.9 300 / 291008.6 19.6 19.1
2017-Jul-20 23:00S 30°30' E 176°54'0 0.0 300 / 281008.9 19.3 19.1
2017-Jul-20 22:00S 30°30' E 176°54'0 0.0 300 / 281008.5 19.3 19.1
2017-Jul-20 21:00S 30°30' E 176°54'5 5.2 300 / 231008.1 18.4 19.0
2017-Jul-20 20:00S 30°30' E 176°48'5 5.2 290 / 301007.2 18.5 19.0
2017-Jul-20 19:00S 30°30' E 176°54'6 6.0 300 / 321006.3 18.4 19.0
2017-Jul-20 18:00S 30°24' E 176°54'5 5.2 300 / 311005.1 18.4 19.0
2017-Jul-20 17:00S 30°24' E 176°48'5 5.2 300 / 301004.8 18.6 19.0
2017-Jul-20 16:00S 30°24' E 176°54'6 6.0 300 / 311005.0 18.4 19.0
2017-Jul-20 15:00S 30°30' E 176°54'6 6.0 290 / 321005.0 18.5 19.0
2017-Jul-20 14:00S 30°24' E 176°54'5 5.2 300 / 321004.5 18.4 19.0
2017-Jul-20 13:00S 30°24' E 176°48'0 0.0 290 / 311004.2 18.5 19.0
2017-Jul-20 12:00S 30°24' E 176°48'8 7.9 290 / 311003.8 18.7 19.0
2017-Jul-20 11:00S 30°18' E 176°42'0 0.0 300 / 321003.6 18.8 19.0
2017-Jul-20 10:00S 30°18' E 176°42'0 0.0 300 / 361003.7 18.7 19.0
2017-Jul-20 09:00S 30°18' E 176°42'8 7.9 290 / 371002.9 18.9 19.0
2017-Jul-20 08:00S 30°24' E 176°48'0 0.0 310 / 371002.3 18.2 19.1
2017-Jul-20 07:00S 30°24' E 176°48'0 0.0 320 / 351002.0 16.7 19.1
2017-Jul-20 06:00S 30°24' E 176°48'0 0.0 300 / 341002.8 16.3 19.1
2017-Jul-20 05:00S 30°24' E 176°48'8 7.9 280 / 381001.6 16.3 19.1
2017-Jul-20 04:00S 30°18' E 176°42'0 0.0 270 / 27999.9 17.0 19.0
2017-Jul-20 03:00S 30°18' E 176°42'8 7.9 340 / 31999.6 19.3 19.2
2017-Jul-20 02:00S 30°12' E 176°36'8 7.9 360 / 381000.2 21.1 19.4
2017-Jul-20 01:00S 30°06' E 176°30'6 6.0 350 / 281002.3 20.0 19.5
2017-Jul-20 00:00S 30°00' E 176°30'0 0.0 020 / 331003.9 19.5 19.6
2017-Jul-19 23:00S 30°00' E 176°30'0 0.0 020 / 331006.3 19.2 19.6
2017-Jul-19 22:00S 30°00' E 176°30'0 0.0 020 / 331007.6 19.5 19.6
2017-Jul-19 21:00S 30°00' E 176°30'1010.4 020 / 331008.0 20.0 19.5
2017-Jul-19 20:00S 30°00' E 176°18'5 5.2 020 / 371007.9 19.6 19.3
2017-Jul-19 19:00S 30°00' E 176°12'1010.4 010 / 361008.2 18.8 19.2
2017-Jul-19 18:00S 30°00' E 176°00'5 5.2 010 / 301008.5 19.1 19.0
2017-Jul-19 17:00S 30°00' E 175°54'0 0.0 010 / 281009.4 19.2 18.7
2017-Jul-19 16:00S 30°00' E 175°54'0 0.0 010 / 281010.2 19.2 18.7
2017-Jul-19 15:00S 30°00' E 175°54'0 0.0 010 / 281010.9 19.2 18.7
2017-Jul-19 14:00S 30°00' E 175°54'1212.0 010 / 321011.0 19.2 18.7
2017-Jul-19 13:00S 30°06' E 175°42'8 7.9 010 / 311011.1 18.9 18.7
2017-Jul-19 12:00S 30°00' E 175°36'5 5.2 010 / 261011.9 18.9 18.4
2017-Jul-19 11:00S 30°00' E 175°30'5 5.2 030 / 151013.2 18.5 18.5
2017-Jul-19 10:00S 30°00' E 175°24'0 0.0 020 / 171013.9 18.4 18.6
2017-Jul-19 09:00S 30°00' E 175°24'5 5.2 010 / 171014.2 18.9 18.6
2017-Jul-19 08:00S 30°00' E 175°30'5 5.2 010 / 171014.0 18.8 18.6
2017-Jul-19 07:00S 30°00' E 175°24'1010.4 030 / 151014.1 18.5 18.6
2017-Jul-19 06:00S 30°00' E 175°12'1010.4 030 / 151014.1 18.4 18.6
2017-Jul-19 05:00S 30°00' E 175°00'5 5.2 090 / 101014.3 18.1 18.6
2017-Jul-19 04:00S 30°00' E 174°54'0 0.0 100 / 81014.7 17.9 18.7
2017-Jul-19 03:00S 30°00' E 174°54'0 0.0 110 / 61015.2 17.6 18.7
2017-Jul-19 02:00S 30°00' E 174°54'0 0.0 090 / 41016.0 17.4 18.6
2017-Jul-19 01:00S 30°00' E 174°54'5 5.2 090 / 41017.0 17.7 18.6
2017-Jul-19 00:00S 30°00' E 174°48'1010.4 130 / 31018.2 17.5 18.2
2017-Jul-18 23:00S 30°00' E 174°36'5 5.2 120 / 21018.9 17.4 18.1
2017-Jul-18 22:00S 30°00' E 174°30'5 5.2 130 / 21018.8 18.2 18.0
2017-Jul-18 21:00S 30°00' E 174°24'0 0.0 240 / 21018.6 18.6 18.0
2017-Jul-18 20:00S 30°00' E 174°24'0 0.0 230 / 41018.2 19.0 18.0
2017-Jul-18 19:00S 30°00' E 174°24'5 5.2 240 / 61017.8 17.8 18.0
2017-Jul-18 18:00S 30°00' E 174°18'1010.4 260 / 81017.6 18.1 18.6
2017-Jul-18 17:00S 30°00' E 174°06'5 5.2 280 / 81017.5 18.0 19.0
2017-Jul-18 16:00S 30°00' E 174°00'0 0.0 270 / 91017.8 17.8 19.0
2017-Jul-18 15:00S 30°00' E 174°00'0 0.0 290 / 91018.0 17.9 19.0
2017-Jul-18 14:00S 30°00' E 174°00'5 5.2 290 / 91018.4 17.9 19.0
2017-Jul-18 13:00S 30°00' E 173°54'1010.4 300 / 61018.7 17.8 18.9
2017-Jul-18 12:00S 30°00' E 173°42'1010.4 340 / 61019.1 17.7 19.0
2017-Jul-18 11:00S 30°00' E 173°30'5 5.2 350 / 51019.1 16.7 18.9
2017-Jul-18 10:00S 30°00' E 173°24'0 0.0 320 / 31019.3 16.1 18.9
2017-Jul-18 09:00S 30°00' E 173°24'5 5.2 310 / 101019.6 16.6 18.9
2017-Jul-18 08:00S 30°00' E 173°30'5 5.2 300 / 141019.4 17.4 18.9
2017-Jul-18 07:00S 30°00' E 173°24'0 0.0 320 / 151019.1 18.4 19.0
2017-Jul-18 06:00S 30°00' E 173°24'   330 / 131018.4 18.5 18.9

Dump ship's entire track history